Bend, Oregon
Current Conditions -  °F | °C
As of 6:15 PM on Monday 22 Dec 2014 (Local Time) from KBDN Reporting Station
Broken Clouds Broken Clouds  
Wind Chill: 41°   Ceiling: 8500
Heat Index: 41°   Visibility: 10mi
Dew Point: 37°   Wind: 0mph
Humidity: 87%   Direction: NA
Pressure: 30.32"   Gusts: NA
Location:  44.06°N, 121.31°W
Report Text: KBDN 230215Z AUTO 00000KT 10SM BKN085 05/03 A3032 RMK AO2
Loading
Personal Weather Stations






























Interactive Weather Map New forecast layout! Learn more

10-Day Weather Forecast

Advertisements
Track Severe Weather on mobile